Time;durP1;ratioP1;P1;durP2;ratioP2;P2;SDS_P1;SDS_P2;PMS_P1;PMS_P2;Temp;Humidity;BMP_temperature;BMP_pressure;BME280_temperature;BME280_humidity;BME280_pressure;Samples;Min_cycle;Max_cycle;Signal;HPM_P1;HPM_P2
2022/10/26 00:01:55;;;;;;;14.98;8.70;;;;;;;;;;5099501;27;20410;-76
2022/10/26 00:04:21;;;;;;;12.13;8.55;;;;;;;;;;5103533;28;20438;-76
2022/10/26 00:06:47;;;;;;;10.98;8.00;;;;;;;;;;5088879;27;20459;-76
2022/10/26 00:09:13;;;;;;;11.57;8.23;;;;;;;;;;5077129;28;20429;-76
2022/10/26 00:11:39;;;;;;;12.05;8.70;;;;;;;;;;5079898;27;20425;-77
2022/10/26 00:14:05;;;;;;;11.00;8.90;;;;;;;;;;5110031;28;20472;-76
2022/10/26 00:16:31;;;;;;;13.97;9.57;;;;;;;;;;5092040;28;20537;-76
2022/10/26 00:18:57;;;;;;;12.65;9.60;;;;;;;;;;5104308;27;20449;-76
2022/10/26 00:21:23;;;;;;;12.48;9.55;;;;;;;;;;5096167;27;20487;-78
2022/10/26 00:23:49;;;;;;;12.55;10.05;;;;;;;;;;5096417;28;20514;-78
2022/10/26 00:26:15;;;;;;;13.45;10.05;;;;;;;;;;5095685;28;20471;-78
2022/10/26 00:28:41;;;;;;;16.10;10.95;;;;;;;;;;5078309;28;20432;-78
2022/10/26 00:31:09;;;;;;;14.10;10.70;;;;;;;;;;5078107;28;20518;-78
2022/10/26 00:33:35;;;;;;;12.30;10.43;;;;;;;;;;5083866;28;20467;-78
2022/10/26 00:36:01;;;;;;;14.98;10.90;;;;;;;;;;5098501;28;20399;-79
2022/10/26 00:38:27;;;;;;;16.02;10.63;;;;;;;;;;5084188;28;20424;-76
2022/10/26 00:40:53;;;;;;;15.55;11.00;;;;;;;;;;5096506;27;20427;-76
2022/10/26 00:43:19;;;;;;;13.02;10.40;;;;;;;;;;5105980;28;20415;-76
2022/10/26 00:45:45;;;;;;;14.32;10.40;;;;;;;;;;5092929;28;20432;-79
2022/10/26 00:48:16;;;;;;;16.30;11.35;;;;;;;;;;5109409;27;20451;-79
2022/10/26 00:50:44;;;;;;;17.02;11.98;;;;;;;;;;5097514;28;20414;-79
2022/10/26 00:53:10;;;;;;;18.63;12.60;;;;;;;;;;5102300;28;20452;-79
2022/10/26 00:55:41;;;;;;;15.65;12.07;;;;;;;;;;5095226;27;20423;-76
2022/10/26 00:58:08;;;;;;;18.17;12.20;;;;;;;;;;5093678;28;20433;-76
2022/10/26 01:00:35;;;;;;;16.50;12.13;;;;;;;;;;5094949;28;20425;-78
2022/10/26 01:03:04;;;;;;;16.60;11.55;;;;;;;;;;5098178;27;20507;-79
2022/10/26 01:05:30;;;;;;;14.80;12.50;;;;;;;;;;5096406;28;20461;-79
2022/10/26 01:07:56;;;;;;;16.23;13.50;;;;;;;;;;5118551;27;20426;-79
2022/10/26 01:10:22;;;;;;;20.13;12.90;;;;;;;;;;5080954;28;20448;-88
2022/10/26 01:12:48;;;;;;;17.17;13.80;;;;;;;;;;5086803;28;20415;-88
2022/10/26 01:15:14;;;;;;;17.88;13.43;;;;;;;;;;5092086;28;20430;-88
2022/10/26 01:18:01;;;;;;;18.98;13.15;;;;;;;;;;5118913;27;20437;-88
2022/10/26 01:20:34;;;;;;;19.40;13.98;;;;;;;;;;5088740;28;20424;-88
2022/10/26 01:23:23;;;;;;;19.42;14.38;;;;;;;;;;5105551;28;20428;-88
2022/10/26 01:26:07;;;;;;;16.67;11.40;;;;;;;;;;5089374;28;20217;-87
2022/10/26 01:28:41;;;;;;;17.95;11.85;;;;;;;;;;5096050;28;20423;-80
2022/10/26 01:31:11;;;;;;;15.80;11.00;;;;;;;;;;5097719;28;20178;-80
2022/10/26 01:34:12;;;;;;;17.60;12.45;;;;;;;;;;5113413;27;20519;-80
2022/10/26 01:36:43;;;;;;;23.45;15.15;;;;;;;;;;5017967;28;20433;-80
2022/10/26 01:39:18;;;;;;;18.73;15.13;;;;;;;;;;5083139;28;20453;-79
2022/10/26 01:41:49;;;;;;;18.45;14.30;;;;;;;;;;5093966;28;20488;-79
2022/10/26 01:44:22;;;;;;;18.38;13.95;;;;;;;;;;5114109;27;20418;-80
2022/10/26 01:46:49;;;;;;;19.52;15.05;;;;;;;;;;5096218;28;20453;-80
2022/10/26 01:49:18;;;;;;;18.73;14.10;;;;;;;;;;5096709;28;20419;-80
2022/10/26 01:51:47;;;;;;;15.53;11.53;;;;;;;;;;5097354;28;20174;-80
2022/10/26 01:54:13;;;;;;;16.37;11.40;;;;;;;;;;5082853;27;20182;-79
2022/10/26 01:56:40;;;;;;;20.95;13.98;;;;;;;;;;5078236;28;20427;-79
2022/10/26 01:59:25;;;;;;;20.98;13.50;;;;;;;;;;5095979;28;20423;-80
2022/10/26 02:02:18;;;;;;;16.37;11.60;;;;;;;;;;5095030;28;20189;-80
2022/10/26 02:04:59;;;;;;;19.63;14.57;;;;;;;;;;5057781;28;20411;-80
2022/10/26 02:07:33;;;;;;;20.05;15.10;;;;;;;;;;5112538;28;20422;-80
2022/10/26 02:10:14;;;;;;;22.13;16.05;;;;;;;;;;5095241;28;20422;-80
2022/10/26 02:12:59;;;;;;;23.35;15.88;;;;;;;;;;5092921;28;20414;-80
2022/10/26 02:15:28;;;;;;;20.80;14.63;;;;;;;;;;5093550;28;20497;-80
2022/10/26 02:18:00;;;;;;;18.85;14.00;;;;;;;;;;5113629;28;20517;-78
2022/10/26 02:20:28;;;;;;;23.13;15.20;;;;;;;;;;5096615;28;20422;-77
2022/10/26 02:22:55;;;;;;;18.95;14.00;;;;;;;;;;5096954;28;20404;-77
2022/10/26 02:25:27;;;;;;;19.23;14.10;;;;;;;;;;5096755;28;20557;-77
2022/10/26 02:28:05;;;;;;;21.63;14.88;;;;;;;;;;5095521;28;20442;-78
2022/10/26 02:30:32;;;;;;;22.92;15.45;;;;;;;;;;5094281;28;20416;-79
2022/10/26 02:32:58;;;;;;;19.00;13.17;;;;;;;;;;5074008;28;20182;-79
2022/10/26 02:35:33;;;;;;;18.38;14.70;;;;;;;;;;5097458;28;20442;-89
2022/10/26 02:38:00;;;;;;;20.58;15.05;;;;;;;;;;5094591;28;20431;-89
2022/10/26 02:40:31;;;;;;;18.73;14.10;;;;;;;;;;5112029;28;20446;-88
2022/10/26 02:42:58;;;;;;;18.33;12.40;;;;;;;;;;5114710;28;20181;-89
2022/10/26 02:45:27;;;;;;;20.73;14.40;;;;;;;;;;5119546;27;20458;-89
2022/10/26 02:47:56;;;;;;;18.80;11.83;;;;;;;;;;5114846;28;20263;-88
2022/10/26 02:50:28;;;;;;;18.00;11.57;;;;;;;;;;5094983;28;20268;-81
2022/10/26 02:53:00;;;;;;;24.45;13.98;;;;;;;;;;5094875;28;20410;-81
2022/10/26 02:55:34;;;;;;;20.75;14.50;;;;;;;;;;5095049;28;20518;-80
2022/10/26 02:58:02;;;;;;;19.38;14.40;;;;;;;;;;5110775;28;20426;-80
2022/10/26 03:00:29;;;;;;;16.77;13.48;;;;;;;;;;5112560;27;20428;-81
2022/10/26 03:02:56;;;;;;;20.55;13.70;;;;;;;;;;5079718;27;20433;-81
2022/10/26 03:05:24;;;;;;;19.65;13.05;;;;;;;;;;5103095;28;20503;-81
2022/10/26 03:07:50;;;;;;;19.13;11.90;;;;;;;;;;5122436;27;20413;-80
2022/10/26 03:10:16;;;;;;;17.07;11.87;;;;;;;;;;5085410;27;20181;-80
2022/10/26 03:12:42;;;;;;;18.93;10.90;;;;;;;;;;5097770;28;20185;-80
2022/10/26 03:15:09;;;;;;;19.35;14.38;;;;;;;;;;5101332;27;20509;-80
2022/10/26 03:17:34;;;;;;;20.53;14.20;;;;;;;;;;5103187;28;20505;-80
2022/10/26 03:20:00;;;;;;;17.80;13.77;;;;;;;;;;5086555;28;20405;-80
2022/10/26 03:22:26;;;;;;;19.60;13.65;;;;;;;;;;5099266;28;20419;-80
2022/10/26 03:24:52;;;;;;;21.50;14.05;;;;;;;;;;5078768;28;20463;-88
2022/10/26 03:27:19;;;;;;;21.48;15.10;;;;;;;;;;5070547;28;20454;-89
2022/10/26 03:29:45;;;;;;;19.93;11.70;;;;;;;;;;5076008;28;20213;-89
2022/10/26 03:32:11;;;;;;;14.93;11.35;;;;;;;;;;5060257;28;20448;-89
2022/10/26 03:34:37;;;;;;;21.15;13.80;;;;;;;;;;5075351;28;20534;-89
2022/10/26 03:37:03;;;;;;;19.20;13.60;;;;;;;;;;5075400;28;20413;-89
2022/10/26 03:39:29;;;;;;;21.23;14.48;;;;;;;;;;5075681;28;20498;-89
2022/10/26 03:41:55;;;;;;;18.50;14.40;;;;;;;;;;5111661;28;20414;-77
2022/10/26 03:44:21;;;;;;;19.50;14.25;;;;;;;;;;5075157;28;20484;-77
2022/10/26 03:46:47;;;;;;;19.75;13.80;;;;;;;;;;5084146;28;20403;-78
2022/10/26 03:49:13;;;;;;;18.23;14.07;;;;;;;;;;5078596;28;20430;-77
2022/10/26 03:51:39;;;;;;;16.77;13.70;;;;;;;;;;5075171;28;20425;-77
2022/10/26 03:54:05;;;;;;;20.08;14.23;;;;;;;;;;5094519;28;20455;-77
2022/10/26 03:56:31;;;;;;;22.42;14.40;;;;;;;;;;5080149;28;20425;-77
2022/10/26 03:58:57;;;;;;;18.80;13.47;;;;;;;;;;5098425;28;20447;-80
2022/10/26 04:01:23;;;;;;;20.40;14.30;;;;;;;;;;5075096;28;20437;-80
2022/10/26 04:03:49;;;;;;;19.00;13.80;;;;;;;;;;5081263;28;20419;-80
2022/10/26 04:06:15;;;;;;;17.83;13.40;;;;;;;;;;5074515;28;20443;-80
2022/10/26 04:08:41;;;;;;;19.83;14.00;;;;;;;;;;5074647;28;20501;-80
2022/10/26 04:11:07;;;;;;;20.05;13.95;;;;;;;;;;5058956;28;20421;-80
2022/10/26 04:13:33;;;;;;;19.60;12.93;;;;;;;;;;5075225;28;20429;-80
2022/10/26 04:15:59;;;;;;;20.13;13.87;;;;;;;;;;5107554;28;20420;-80
2022/10/26 04:18:25;;;;;;;18.73;11.23;;;;;;;;;;5096365;28;20296;-80
2022/10/26 04:20:51;;;;;;;18.50;11.50;;;;;;;;;;5134082;28;20456;-80
2022/10/26 04:23:18;;;;;;;20.95;13.27;;;;;;;;;;5104794;28;20424;-80
2022/10/26 04:25:45;;;;;;;19.08;11.85;;;;;;;;;;5097177;28;20404;-80
2022/10/26 04:28:12;;;;;;;21.83;10.97;;;;;;;;;;5097566;28;20213;-80
2022/10/26 04:30:38;;;;;;;19.95;13.07;;;;;;;;;;5079035;28;20512;-80
2022/10/26 04:33:04;;;;;;;20.80;11.97;;;;;;;;;;5082067;27;20191;-80
2022/10/26 04:35:31;;;;;;;21.42;14.48;;;;;;;;;;5102406;27;20508;-80
2022/10/26 04:38:06;;;;;;;16.23;11.80;;;;;;;;;;5132185;27;20213;-80
2022/10/26 04:40:32;;;;;;;16.65;10.27;;;;;;;;;;5119157;27;20467;-80
2022/10/26 04:42:59;;;;;;;20.98;12.35;;;;;;;;;;5126619;27;20481;-80
2022/10/26 04:45:27;;;;;;;18.25;12.57;;;;;;;;;;5101970;27;20496;-80
2022/10/26 04:47:59;;;;;;;13.83;11.17;;;;;;;;;;5119342;27;20439;-78
2022/10/26 04:50:26;;;;;;;19.50;12.90;;;;;;;;;;5134752;27;20409;-78
2022/10/26 04:52:52;;;;;;;19.33;10.33;;;;;;;;;;5118068;27;20174;-78
2022/10/26 04:55:18;;;;;;;15.97;10.13;;;;;;;;;;5096142;28;20185;-78
2022/10/26 04:57:44;;;;;;;14.37;9.80;;;;;;;;;;5097364;28;20221;-78
2022/10/26 05:00:11;;;;;;;17.57;9.83;;;;;;;;;;5096290;28;20269;-77
2022/10/26 05:02:37;;;;;;;14.57;9.53;;;;;;;;;;5107847;27;20253;-78
2022/10/26 05:05:03;;;;;;;21.38;13.07;;;;;;;;;;5077028;28;20500;-80
2022/10/26 05:07:29;;;;;;;19.35;13.13;;;;;;;;;;5092701;27;20432;-80
2022/10/26 05:09:55;;;;;;;18.02;13.10;;;;;;;;;;5105052;28;20427;-80
2022/10/26 05:12:21;;;;;;;18.83;12.95;;;;;;;;;;5087865;28;20457;-80
2022/10/26 05:14:47;;;;;;;18.88;12.07;;;;;;;;;;5081283;28;20457;-80
2022/10/26 05:17:13;;;;;;;19.02;13.32;;;;;;;;;;5097972;28;20466;-80
2022/10/26 05:19:39;;;;;;;18.70;12.48;;;;;;;;;;5096056;27;20451;-80
2022/10/26 05:22:05;;;;;;;20.47;10.93;;;;;;;;;;5098715;28;20182;-78
2022/10/26 05:24:31;;;;;;;18.93;10.30;;;;;;;;;;5098701;28;20178;-78
2022/10/26 05:26:57;;;;;;;13.67;10.23;;;;;;;;;;5116492;28;20178;-80
2022/10/26 05:29:23;;;;;;;18.27;10.68;;;;;;;;;;5097826;28;20432;-80
2022/10/26 05:31:49;;;;;;;17.37;10.90;;;;;;;;;;5101543;22;20461;-80
2022/10/26 05:34:15;;;;;;;12.90;9.57;;;;;;;;;;5094117;28;20405;-80
2022/10/26 05:36:41;;;;;;;13.73;8.82;;;;;;;;;;5077757;28;20343;-80
2022/10/26 05:39:07;;;;;;;14.43;9.20;;;;;;;;;;5077868;28;20221;-80
2022/10/26 05:41:33;;;;;;;14.85;9.50;;;;;;;;;;5077651;28;20408;-80
2022/10/26 05:43:59;;;;;;;16.42;11.02;;;;;;;;;;5077240;28;20416;-80
2022/10/26 05:46:25;;;;;;;16.53;9.17;;;;;;;;;;5094448;28;20206;-80
2022/10/26 05:48:51;;;;;;;16.13;8.97;;;;;;;;;;5077742;28;20229;-80
2022/10/26 05:51:17;;;;;;;14.73;11.27;;;;;;;;;;5093751;28;20492;-80
2022/10/26 05:53:43;;;;;;;15.33;9.53;;;;;;;;;;5077595;28;20277;-78
2022/10/26 05:56:20;;;;;;;14.97;9.63;;;;;;;;;;5077579;28;20183;-78
2022/10/26 05:58:46;;;;;;;15.32;10.63;;;;;;;;;;5076808;28;20436;-78
2022/10/26 06:01:28;;;;;;;16.13;10.40;;;;;;;;;;5093978;28;20405;-78
2022/10/26 06:03:57;;;;;;;16.90;9.07;;;;;;;;;;5094115;28;20190;-78
2022/10/26 06:06:24;;;;;;;17.83;9.30;;;;;;;;;;5095284;28;20194;-78
2022/10/26 06:08:50;;;;;;;15.50;9.23;;;;;;;;;;5077265;28;20186;-78
2022/10/26 06:11:16;;;;;;;15.68;11.15;;;;;;;;;;5094035;28;20435;-90
2022/10/26 06:13:42;;;;;;;14.17;10.37;;;;;;;;;;5077918;28;20206;-89
2022/10/26 06:16:17;;;;;;;13.83;9.37;;;;;;;;;;5094737;28;20171;-89
2022/10/26 06:18:43;;;;;;;16.07;9.77;;;;;;;;;;5095578;28;20233;-90
2022/10/26 06:21:09;;;;;;;15.87;9.30;;;;;;;;;;5094504;28;20175;-87
2022/10/26 06:23:41;;;;;;;17.50;9.67;;;;;;;;;;5094764;28;20206;-90
2022/10/26 06:26:12;;;;;;;18.23;9.43;;;;;;;;;;5094196;28;20174;-88
2022/10/26 06:28:47;;;;;;;15.47;10.00;;;;;;;;;;5095298;28;20178;-78
2022/10/26 06:31:13;;;;;;;20.13;9.07;;;;;;;;;;5093249;28;20226;-78
2022/10/26 06:33:39;;;;;;;18.17;10.23;;;;;;;;;;5093411;28;20181;-78
2022/10/26 06:36:21;;;;;;;19.35;11.57;;;;;;;;;;5056851;28;20421;-78
2022/10/26 06:38:48;;;;;;;17.52;11.48;;;;;;;;;;5071268;28;20491;-78
2022/10/26 06:41:17;;;;;;;18.38;11.02;;;;;;;;;;5087747;28;20409;-78
2022/10/26 06:43:44;;;;;;;17.90;10.00;;;;;;;;;;5074552;28;20163;-78
2022/10/26 06:46:16;;;;;;;13.47;9.20;;;;;;;;;;5089998;28;20191;-77
2022/10/26 06:48:48;;;;;;;13.73;9.33;;;;;;;;;;5073438;28;20179;-77
2022/10/26 06:51:15;;;;;;;13.17;8.67;;;;;;;;;;5073224;28;20270;-78
2022/10/26 06:53:45;;;;;;;12.17;8.50;;;;;;;;;;5073112;28;20228;-78
2022/10/26 06:56:12;;;;;;;13.13;9.27;;;;;;;;;;5073608;28;20413;-77
2022/10/26 06:58:40;;;;;;;12.23;9.13;;;;;;;;;;5073215;28;20203;-77
2022/10/26 07:01:06;;;;;;;13.83;9.47;;;;;;;;;;5073761;28;20186;-89
2022/10/26 07:03:32;;;;;;;21.43;10.47;;;;;;;;;;5075210;28;20194;-90
2022/10/26 07:05:58;;;;;;;20.50;9.63;;;;;;;;;;5090222;28;20179;-89
2022/10/26 07:08:24;;;;;;;16.70;9.30;;;;;;;;;;5107163;28;20233;-89
2022/10/26 07:10:50;;;;;;;13.50;9.20;;;;;;;;;;5073258;28;20214;-90
2022/10/26 07:13:16;;;;;;;14.67;9.33;;;;;;;;;;5073355;28;20180;-89
2022/10/26 07:15:42;;;;;;;15.33;8.83;;;;;;;;;;5089877;28;20179;-89
2022/10/26 07:18:09;;;;;;;14.60;9.43;;;;;;;;;;5074180;28;20203;-81
2022/10/26 07:20:36;;;;;;;17.23;9.60;;;;;;;;;;5073943;28;20199;-81
2022/10/26 07:23:05;;;;;;;15.90;9.60;;;;;;;;;;5073985;28;20232;-81
2022/10/26 07:25:32;;;;;;;16.53;9.40;;;;;;;;;;5073170;28;20237;-81
2022/10/26 07:27:58;;;;;;;14.30;8.63;;;;;;;;;;5073828;28;20171;-81
2022/10/26 07:30:25;;;;;;;12.20;7.83;;;;;;;;;;5072728;28;20179;-81
2022/10/26 07:32:51;;;;;;;20.10;9.40;;;;;;;;;;5089728;28;20195;-80
2022/10/26 07:35:17;;;;;;;25.80;10.20;;;;;;;;;;5090191;28;20180;-80
2022/10/26 07:37:43;;;;;;;21.50;8.90;;;;;;;;;;5074025;28;20266;-80
2022/10/26 07:40:09;;;;;;;16.87;9.60;;;;;;;;;;5089545;28;20179;-80
2022/10/26 07:42:36;;;;;;;18.57;8.63;;;;;;;;;;5106171;28;20183;-80
2022/10/26 07:45:02;;;;;;;18.90;8.30;;;;;;;;;;5088892;28;20186;-80
2022/10/26 07:47:28;;;;;;;13.83;8.43;;;;;;;;;;5072485;28;20187;-80
2022/10/26 07:49:54;;;;;;;14.07;9.07;;;;;;;;;;5089211;28;20183;-80
2022/10/26 07:52:20;;;;;;;13.43;8.37;;;;;;;;;;5076656;28;20218;-80
2022/10/26 07:54:46;;;;;;;11.73;8.23;;;;;;;;;;5088993;28;20187;-80
2022/10/26 07:57:12;;;;;;;17.40;9.23;;;;;;;;;;5088991;28;20187;-80
2022/10/26 07:59:38;;;;;;;13.25;9.00;;;;;;;;;;5076969;28;20429;-80
2022/10/26 08:02:04;;;;;;;12.53;7.60;;;;;;;;;;5099424;28;20171;-80
2022/10/26 08:04:30;;;;;;;13.23;7.53;;;;;;;;;;5101942;28;20240;-80
2022/10/26 08:06:56;;;;;;;12.83;7.60;;;;;;;;;;5101562;28;20182;-79
2022/10/26 08:09:22;;;;;;;12.73;6.40;;;;;;;;;;5080283;28;20182;-78
2022/10/26 08:11:48;;;;;;;10.37;6.07;;;;;;;;;;5088344;28;20273;-74
2022/10/26 08:14:14;;;;;;;8.30;5.50;;;;;;;;;;5088067;28;20186;-75
2022/10/26 08:16:40;;;;;;;6.70;4.80;;;;;;;;;;5081957;28;20183;-75
2022/10/26 08:19:06;;;;;;;12.60;4.70;;;;;;;;;;5078976;28;20202;-75
2022/10/26 08:21:32;;;;;;;8.73;4.30;;;;;;;;;;5078785;28;20189;-75
2022/10/26 08:23:58;;;;;;;10.03;4.33;;;;;;;;;;5074577;28;20178;-87
2022/10/26 08:26:24;;;;;;;6.23;4.30;;;;;;;;;;5076644;28;20186;-87
2022/10/26 08:28:50;;;;;;;6.07;3.93;;;;;;;;;;5079333;28;20209;-87
2022/10/26 08:31:16;;;;;;;7.67;3.83;;;;;;;;;;5083196;28;20229;-87
2022/10/26 08:33:42;;;;;;;7.00;3.67;;;;;;;;;;5079172;28;20182;-87
2022/10/26 08:36:08;;;;;;;13.17;4.13;;;;;;;;;;5098894;28;20235;-87
2022/10/26 08:38:34;;;;;;;5.17;3.60;;;;;;;;;;5084639;28;20215;-87
2022/10/26 08:41:05;;;;;;;8.27;4.00;;;;;;;;;;5079123;28;20237;-82
2022/10/26 08:43:33;;;;;;;5.57;3.27;;;;;;;;;;5111146;28;20205;-82
2022/10/26 08:45:59;;;;;;;8.87;4.00;;;;;;;;;;5104566;28;20179;-82
2022/10/26 08:48:28;;;;;;;7.97;3.30;;;;;;;;;;5103996;28;20185;-81
2022/10/26 08:50:56;;;;;;;9.07;3.40;;;;;;;;;;5104495;28;20277;-83
2022/10/26 08:53:31;;;;;;;5.40;3.50;;;;;;;;;;5102624;28;20171;-83
2022/10/26 08:56:06;;;;;;;8.30;2.60;;;;;;;;;;5108508;28;20223;-83
2022/10/26 08:58:37;;;;;;;7.47;2.70;;;;;;;;;;5102533;28;20212;-83
2022/10/26 09:01:04;;;;;;;6.13;2.43;;;;;;;;;;5106343;28;20174;-84
2022/10/26 09:03:30;;;;;;;4.63;2.30;;;;;;;;;;5101804;28;20182;-82
2022/10/26 09:06:03;;;;;;;7.13;2.30;;;;;;;;;;5083687;28;20182;-82
2022/10/26 09:08:48;;;;;;;3.73;2.37;;;;;;;;;;5098893;28;20193;-82
2022/10/26 09:11:23;;;;;;;5.67;2.50;;;;;;;;;;5103006;28;20180;-82
2022/10/26 09:14:11;;;;;;;6.03;2.40;;;;;;;;;;5096374;28;20185;-81
2022/10/26 09:16:56;;;;;;;9.83;2.90;;;;;;;;;;5096706;28;20182;-79
2022/10/26 09:19:22;;;;;;;5.73;2.33;;;;;;;;;;5101093;28;20198;-79
2022/10/26 09:22:07;;;;;;;4.97;2.33;;;;;;;;;;5103152;28;20179;-78
2022/10/26 09:24:34;;;;;;;6.57;2.50;;;;;;;;;;5098773;28;20171;-78
2022/10/26 09:27:17;;;;;;;7.77;2.63;;;;;;;;;;5093385;28;20179;-78
2022/10/26 09:29:43;;;;;;;5.77;2.57;;;;;;;;;;5095486;28;20179;-79
2022/10/26 09:32:20;;;;;;;5.73;2.20;;;;;;;;;;5095587;28;20234;-76
2022/10/26 09:34:49;;;;;;;6.17;2.60;;;;;;;;;;5078642;28;20241;-77
2022/10/26 09:37:20;;;;;;;6.47;2.60;;;;;;;;;;5093748;28;20541;-76
2022/10/26 09:40:00;;;;;;;7.40;2.63;;;;;;;;;;5096972;28;20428;-75
2022/10/26 09:42:41;;;;;;;5.20;2.50;;;;;;;;;;5103036;28;20174;-76
2022/10/26 09:45:19;;;;;;;9.07;2.70;;;;;;;;;;5102124;28;20170;-75
2022/10/26 09:47:51;;;;;;;7.78;2.83;;;;;;;;;;5102217;28;20487;-78
2022/10/26 09:50:33;;;;;;;7.68;3.00;;;;;;;;;;5108085;28;20397;-78
2022/10/26 09:52:59;;;;;;;5.90;3.10;;;;;;;;;;5098540;28;20407;-78
2022/10/26 09:55:26;;;;;;;3.55;2.60;;;;;;;;;;5080410;28;20179;-79
2022/10/26 09:57:55;;;;;;;7.03;2.90;;;;;;;;;;5100429;28;20228;-79
2022/10/26 10:00:22;;;;;;;8.70;3.15;;;;;;;;;;5105046;28;20210;-79
2022/10/26 10:02:52;;;;;;;7.72;3.03;;;;;;;;;;5102302;28;20166;-79
2022/10/26 10:05:21;;;;;;;5.93;3.58;;;;;;;;;;5104045;28;20432;-88
2022/10/26 10:07:47;;;;;;;7.70;3.25;;;;;;;;;;5100935;28;20173;-88
2022/10/26 10:10:20;;;;;;;6.05;3.00;;;;;;;;;;5081818;28;20183;-89
2022/10/26 10:12:49;;;;;;;5.50;3.10;;;;;;;;;;5096051;28;20204;-88
2022/10/26 10:15:23;;;;;;;8.48;3.28;;;;;;;;;;5102918;28;20170;-88
2022/10/26 10:17:50;;;;;;;6.57;3.28;;;;;;;;;;5100486;28;20216;-88
2022/10/26 10:20:25;;;;;;;9.63;4.07;;;;;;;;;;5097905;28;21093;-82
2022/10/26 10:23:02;;;;;;;6.65;3.50;;;;;;;;;;5115429;27;20360;-80
2022/10/26 10:25:41;;;;;;;6.93;3.45;;;;;;;;;;5093572;28;20257;-80
2022/10/26 10:28:34;;;;;;;13.80;4.07;;;;;;;;;;5090102;28;20268;-80
2022/10/26 10:31:01;;;;;;;6.13;3.83;;;;;;;;;;5089309;28;20214;-79
2022/10/26 10:33:35;;;;;;;6.55;3.83;;;;;;;;;;5094229;28;20175;-80
2022/10/26 10:36:02;;;;;;;7.70;3.90;;;;;;;;;;5093451;28;20178;-80
2022/10/26 10:38:28;;;;;;;9.07;4.88;;;;;;;;;;5095777;28;20204;-80
2022/10/26 10:40:58;;;;;;;8.35;3.85;;;;;;;;;;5102998;28;20202;-80
2022/10/26 10:43:25;;;;;;;5.00;3.90;;;;;;;;;;5099020;28;20182;-80
2022/10/26 10:45:52;;;;;;;7.22;3.78;;;;;;;;;;5102210;28;20252;-80
2022/10/26 10:48:20;;;;;;;9.70;4.13;;;;;;;;;;5102176;28;20175;-80
2022/10/26 10:50:55;;;;;;;5.60;3.50;;;;;;;;;;5103470;28;20181;-80
2022/10/26 10:53:34;;;;;;;8.23;3.58;;;;;;;;;;5104758;28;20173;-80
2022/10/26 10:56:06;;;;;;;9.95;3.65;;;;;;;;;;5094538;28;20198;-79
2022/10/26 10:58:59;;;;;;;7.38;3.42;;;;;;;;;;5092995;28;20198;-78
2022/10/26 11:01:30;;;;;;;10.20;3.70;;;;;;;;;;5093159;28;20178;-78
2022/10/26 11:04:24;;;;;;;5.63;3.38;;;;;;;;;;5094441;28;20202;-78
2022/10/26 11:06:51;;;;;;;5.15;3.65;;;;;;;;;;5093105;28;20178;-78
2022/10/26 11:09:21;;;;;;;8.23;3.55;;;;;;;;;;5094168;28;20181;-78
2022/10/26 11:11:49;;;;;;;7.35;3.78;;;;;;;;;;5094179;28;20210;-75
2022/10/26 11:14:23;;;;;;;9.98;3.78;;;;;;;;;;5093137;28;20179;-76
2022/10/26 11:16:56;;;;;;;6.90;3.60;;;;;;;;;;5093174;28;20181;-75
2022/10/26 11:19:39;;;;;;;7.97;3.75;;;;;;;;;;5094060;28;20285;-76
2022/10/26 11:22:05;;;;;;;10.48;3.20;;;;;;;;;;5092752;28;20185;-75
2022/10/26 11:24:36;;;;;;;8.43;3.40;;;;;;;;;;5092612;28;20181;-75
2022/10/26 11:27:31;;;;;;;7.00;3.40;;;;;;;;;;5093589;28;20228;-78
2022/10/26 11:30:15;;;;;;;7.38;3.58;;;;;;;;;;5071521;28;20182;-78
2022/10/26 11:32:47;;;;;;;10.17;4.13;;;;;;;;;;5091210;28;20436;-80
2022/10/26 11:35:19;;;;;;;9.52;3.95;;;;;;;;;;5092278;28;20189;-80
2022/10/26 11:37:51;;;;;;;6.82;3.60;;;;;;;;;;5090494;28;20201;-80
2022/10/26 11:40:35;;;;;;;8.60;3.38;;;;;;;;;;5093367;28;20249;-80
2022/10/26 11:43:18;;;;;;;7.67;3.77;;;;;;;;;;5091647;28;20224;-80
2022/10/26 11:45:45;;;;;;;6.93;3.38;;;;;;;;;;5092337;28;20177;-82
2022/10/26 11:48:11;;;;;;;6.50;3.40;;;;;;;;;;5092759;28;20203;-82
2022/10/26 11:50:41;;;;;;;10.87;3.80;;;;;;;;;;5093707;28;20198;-81
2022/10/26 11:53:12;;;;;;;8.20;3.50;;;;;;;;;;5090152;28;20174;-82
2022/10/26 11:55:39;;;;;;;9.30;3.70;;;;;;;;;;5093105;28;20170;-82
2022/10/26 11:58:06;;;;;;;7.47;3.70;;;;;;;;;;5090600;28;20202;-81
2022/10/26 12:00:32;;;;;;;4.97;3.10;;;;;;;;;;5093385;28;20185;-82
2022/10/26 12:03:10;;;;;;;5.57;3.90;;;;;;;;;;5093251;28;20171;-82
2022/10/26 12:05:46;;;;;;;8.50;3.30;;;;;;;;;;5090947;28;20269;-82
2022/10/26 12:08:35;;;;;;;5.73;3.67;;;;;;;;;;5093635;28;20229;-82
2022/10/26 12:11:25;;;;;;;9.90;3.30;;;;;;;;;;5097607;28;20173;-82
2022/10/26 12:13:57;;;;;;;8.83;3.73;;;;;;;;;;5095310;28;20195;-82
2022/10/26 12:16:38;;;;;;;7.00;3.60;;;;;;;;;;5101541;28;20262;-82
2022/10/26 12:19:31;;;;;;;6.33;3.40;;;;;;;;;;5100974;28;20247;-80
2022/10/26 12:21:57;;;;;;;10.57;3.93;;;;;;;;;;5072950;28;20199;-81
2022/10/26 12:24:23;;;;;;;6.83;3.50;;;;;;;;;;5092687;28;20182;-80
2022/10/26 12:26:53;;;;;;;8.40;3.70;;;;;;;;;;5093377;28;20181;-80
2022/10/26 12:29:28;;;;;;;6.77;3.50;;;;;;;;;;5092706;28;20182;-80
2022/10/26 12:31:54;;;;;;;10.37;3.77;;;;;;;;;;5092262;28;20263;-80
2022/10/26 12:34:24;;;;;;;6.50;3.80;;;;;;;;;;5075904;28;20279;-81
2022/10/26 12:37:10;;;;;;;11.00;4.27;;;;;;;;;;5092422;28;20186;-82
2022/10/26 12:39:38;;;;;;;11.73;4.60;;;;;;;;;;5093280;28;20226;-82
2022/10/26 12:42:04;;;;;;;9.17;3.87;;;;;;;;;;5100668;28;20178;-82
2022/10/26 12:44:33;;;;;;;10.03;3.77;;;;;;;;;;5103886;28;20170;-82
2022/10/26 12:46:59;;;;;;;6.70;3.40;;;;;;;;;;5106484;28;20171;-81
2022/10/26 12:49:44;;;;;;;7.77;3.30;;;;;;;;;;5089881;28;20234;-82
2022/10/26 12:52:46;;;;;;;7.80;3.67;;;;;;;;;;5076297;28;20430;-78
2022/10/26 12:55:17;;;;;;;10.03;3.60;;;;;;;;;;5034609;28;20184;-78
2022/10/26 12:57:43;;;;;;;9.90;3.60;;;;;;;;;;5069522;28;20207;-78
2022/10/26 13:00:22;;;;;;;7.67;3.70;;;;;;;;;;5075335;28;20172;-78
2022/10/26 13:02:54;;;;;;;12.20;3.70;;;;;;;;;;5075678;28;20175;-77
2022/10/26 13:05:39;;;;;;;6.23;3.67;;;;;;;;;;5076931;28;20171;-78
2022/10/26 13:08:09;;;;;;;7.67;3.87;;;;;;;;;;5086086;28;20204;-90
2022/10/26 13:10:37;;;;;;;8.30;3.93;;;;;;;;;;5095789;28;20186;-90
2022/10/26 13:13:04;;;;;;;6.63;3.87;;;;;;;;;;5095807;28;20182;-88
2022/10/26 13:15:51;;;;;;;6.23;3.37;;;;;;;;;;5096200;28;20186;-89
2022/10/26 13:18:19;;;;;;;4.40;3.40;;;;;;;;;;5095354;28;20201;-88
2022/10/26 13:20:51;;;;;;;8.50;3.43;;;;;;;;;;5096689;28;20175;-89
2022/10/26 13:23:23;;;;;;;5.53;3.30;;;;;;;;;;5095462;28;20212;-88
2022/10/26 13:26:06;;;;;;;4.67;3.30;;;;;;;;;;5108530;28;20170;-79
2022/10/26 13:28:38;;;;;;;8.30;3.70;;;;;;;;;;5075281;28;20441;-79
2022/10/26 13:31:10;;;;;;;9.10;3.83;;;;;;;;;;5074238;28;20469;-79
2022/10/26 13:33:37;;;;;;;7.93;3.70;;;;;;;;;;5074132;28;20421;-79
2022/10/26 13:36:10;;;;;;;5.53;3.43;;;;;;;;;;5076078;28;20167;-79
2022/10/26 13:38:37;;;;;;;19.88;4.50;;;;;;;;;;5075647;28;20496;-79
2022/10/26 13:41:08;;;;;;;8.27;3.50;;;;;;;;;;5075212;28;20202;-79
2022/10/26 13:43:36;;;;;;;5.80;3.67;;;;;;;;;;5091782;28;20266;-79
2022/10/26 13:46:03;;;;;;;7.93;3.97;;;;;;;;;;5092011;28;20172;-79
2022/10/26 13:48:37;;;;;;;6.17;3.87;;;;;;;;;;5091392;28;20203;-79
2022/10/26 13:51:10;;;;;;;6.20;4.17;;;;;;;;;;5131560;27;20185;-79
2022/10/26 13:53:39;;;;;;;7.53;4.37;;;;;;;;;;5107316;28;20492;-79
2022/10/26 13:56:21;;;;;;;7.80;3.83;;;;;;;;;;5099820;28;20412;-79
2022/10/26 13:58:49;;;;;;;10.60;4.27;;;;;;;;;;5094069;28;20229;-75
2022/10/26 14:01:20;;;;;;;7.33;4.17;;;;;;;;;;5095516;28;20201;-75
2022/10/26 14:03:47;;;;;;;6.33;4.17;;;;;;;;;;5094619;28;20262;-75
2022/10/26 14:06:15;;;;;;;6.27;4.03;;;;;;;;;;5094553;28;20177;-74
2022/10/26 14:08:42;;;;;;;9.13;4.33;;;;;;;;;;5094674;28;20178;-75
2022/10/26 14:11:12;;;;;;;4.57;3.70;;;;;;;;;;5095535;28;20228;-74
2022/10/26 14:13:38;;;;;;;5.70;3.90;;;;;;;;;;5094458;28;20181;-78
2022/10/26 14:16:06;;;;;;;7.10;3.90;;;;;;;;;;5095649;28;20183;-79
2022/10/26 14:18:33;;;;;;;6.97;4.07;;;;;;;;;;5094426;28;20210;-79
2022/10/26 14:21:07;;;;;;;6.07;3.73;;;;;;;;;;5077708;28;20183;-79
2022/10/26 14:23:50;;;;;;;8.57;4.47;;;;;;;;;;5095496;28;20194;-79
2022/10/26 14:26:24;;;;;;;9.10;4.30;;;;;;;;;;5094686;28;20210;-79
2022/10/26 14:28:52;;;;;;;7.90;3.97;;;;;;;;;;5094382;28;20179;-79
2022/10/26 14:31:21;;;;;;;6.40;3.73;;;;;;;;;;5094538;28;20278;-79
2022/10/26 14:33:47;;;;;;;8.20;4.10;;;;;;;;;;5095309;28;20182;-78
2022/10/26 14:36:13;;;;;;;5.53;3.60;;;;;;;;;;5095604;28;20175;-79
2022/10/26 14:38:44;;;;;;;6.17;3.30;;;;;;;;;;5094349;28;20202;-79
2022/10/26 14:41:11;;;;;;;5.10;3.57;;;;;;;;;;5095081;28;20280;-79
2022/10/26 14:43:37;;;;;;;5.43;3.37;;;;;;;;;;5077497;28;20201;-79
2022/10/26 14:46:03;;;;;;;6.00;3.20;;;;;;;;;;5094219;28;20184;-79
2022/10/26 14:48:33;;;;;;;5.93;3.10;;;;;;;;;;5094140;28;20198;-76